Chemical Pioneer — KAFO — position and weather

sailwx.info

Track history (hours):
 
Tides and Currents Weather Stations Pressure Air Temp Water Temp Dewpoint Dewpoint Depression Visibility Wind Speed Wind Dir Waves Ship Positions

Chemical Pioneer

Owner: US Shipping Corp, Edison, NJ. More information available from US FCC via Universal Licensing System and Coast Guard Vessel Documentation Center.

Last reported at 2017-Oct-20 01:15 UTC. Time now 2017-Oct-20 01:37 UTC.
Position N 29°22' W 094°55'.

Type: Tanker. MMSI: 366032000.

Date/timePositionNaut miles runAvg speedWind from/ knotsBaromVisibWave heightAir tempDewpointWater temp
2017-Oct-20 01:15N 29°22' W 094°55'0 0.0
2017-Oct-20 00:40N 29°22' W 094°55'0 0.0
2017-Oct-20 00:21N 29°22' W 094°55'0 0.0
2017-Oct-19 23:43N 29°22' W 094°55'0 0.0
2017-Oct-19 23:29N 29°22' W 094°55'0 0.0
2017-Oct-19 22:58N 29°22' W 094°55'0 0.0
2017-Oct-19 22:16N 29°22' W 094°55'0 0.0
2017-Oct-19 22:00N 29°22' W 094°55'0 0.0
2017-Oct-19 21:29N 29°22' W 094°55'0 0.0
2017-Oct-19 20:56N 29°22' W 094°55'0 0.0
2017-Oct-19 20:27N 29°22' W 094°55'0 0.0
2017-Oct-19 19:56N 29°22' W 094°55'1 0.7
2017-Oct-19 19:12N 29°22' W 094°54'1 2.9
2017-Oct-19 18:50N 29°22' W 094°53'1 4.0
2017-Oct-19 18:30N 29°23' W 094°52'6 9.9
2017-Oct-19 17:57N 29°21' W 094°46'  
2017-Oct-13 17:57N 24°59' W 080°14'613.9
2017-Oct-13 17:31N 25°04' W 080°10'714.8
2017-Oct-13 17:00N 25°11' W 080°07'714.3
2017-Oct-13 16:30N 25°18' W 080°04'714.6
2017-Oct-13 16:01N 25°25' W 080°02'714.5
2017-Oct-13 15:30N 25°32' W 080°01'714.5
2017-Oct-13 15:00N 25°39' W 080°01'715.0
2017-Oct-13 14:30N 25°47' W 079°60'816.4
2017-Oct-13 14:00N 25°55' W 079°59'815.5
2017-Oct-13 13:30N 26°02' W 079°59'714.3
2017-Oct-13 13:00N 26°10' W 079°59'815.4
2017-Oct-13 12:30N 26°17' W 079°58'815.2
2017-Oct-13 12:00N 26°25' W 079°58'715.0
2017-Oct-13 11:30N 26°32' W 079°57'714.6
2017-Oct-13 11:00N 26°40' W 079°58'714.6
2017-Oct-13 10:30N 26°47' W 079°58'713.6
2017-Oct-13 10:00N 26°54' W 079°58'714.2
2017-Oct-13 09:30N 27°01' W 079°58'714.2
2017-Oct-13 09:00N 27°08' W 079°58'23315.7
2017-Oct-12 18:09N 30°56' W 080°56'416.9
2017-Oct-12 17:54N 30°58' W 080°52'3416.9
2017-Oct-12 15:55N 31°17' W 080°19'4117.3
2017-Oct-12 13:34N 31°38' W 079°39'416.3
2017-Oct-12 13:21N 31°40' W 079°35'615.9
2017-Oct-12 12:58N 31°43' W 079°29'715.0
2017-Oct-12 12:29N 31°47' W 079°22'815.4
2017-Oct-12 11:57N 31°53' W 079°15'716.5
2017-Oct-12 11:30N 31°58' W 079°09'15716.2
2017-Oct-12 01:51N 33°47' W 076°55'616.6
2017-Oct-12 01:30N 33°51' W 076°50'916.7
2017-Oct-12 01:00N 33°57' W 076°42'916.8
2017-Oct-12 00:27N 34°03' W 076°35'816.8
2017-Oct-12 00:00N 34°08' W 076°28'816.7
2017-Oct-11 23:30N 34°14' W 076°21'816.7
2017-Oct-11 23:00N 34°20' W 076°13'916.3
2017-Oct-11 22:28N 34°26' W 076°05'916.0
2017-Oct-11 21:56N 34°32' W 075°58'715.6
2017-Oct-11 21:30N 34°36' W 075°52'815.6
2017-Oct-11 21:00N 34°41' W 075°45'815.6
2017-Oct-11 20:28N 34°47' W 075°38'815.7
2017-Oct-11 19:56N 34°53' W 075°31'28814.5
2017-Oct-11 00:01N 39°42' W 075°31'714.7
2017-Oct-10 23:30N 39°48' W 075°26'2 3.4
2017-Oct-10 22:59N 39°49' W 075°24'0 0.3
2017-Oct-10 22:29N 39°49' W 075°24'0 0.1
2017-Oct-10 21:59N 39°49' W 075°24'0 0.0
2017-Oct-10 21:29N 39°49' W 075°24'0 0.1
2017-Oct-10 20:59N 39°49' W 075°24'0 0.0
2017-Oct-10 20:29N 39°49' W 075°24'0 0.0
2017-Oct-10 19:59N 39°49' W 075°24'0 0.0
2017-Oct-10 19:29N 39°49' W 075°24'0 0.0
2017-Oct-10 18:59N 39°49' W 075°24'0 0.0
2017-Oct-10 18:29N 39°49' W 075°24'0 0.0
2017-Oct-10 17:59N 39°49' W 075°24'0 0.0
2017-Oct-10 17:29N 39°49' W 075°24'0 0.1
2017-Oct-10 16:59N 39°49' W 075°24'0 0.3
2017-Oct-10 16:29N 39°49' W 075°24'0 0.1
2017-Oct-10 15:59N 39°49' W 075°24'0 0.1
2017-Oct-10 15:29N 39°49' W 075°24'0 0.0
2017-Oct-10 15:00N 39°49' W 075°24'0 0.0
2017-Oct-10 14:00N 39°49' W 075°24'0 0.0
2017-Oct-10 13:30N 39°49' W 075°24'0 0.4
2017-Oct-10 13:00N 39°49' W 075°24'2 4.1
2017-Oct-10 12:31N 39°50' W 075°22'5 9.7
2017-Oct-10 12:00N 39°51' W 075°16'611.9
2017-Oct-10 11:31N 39°53' W 075°08'4 8.5
2017-Oct-10 11:01N 39°57' W 075°08'2 4.1
2017-Oct-10 10:31N 39°59' W 075°06'0 0.0
2017-Oct-10 10:00N 39°59' W 075°06'0 0.0
2017-Oct-10 09:30N 39°59' W 075°06'0 0.0
2017-Oct-10 09:00N 39°59' W 075°06'0 0.0
2017-Oct-10 08:30N 39°59' W 075°06'0 0.0
2017-Oct-10 08:00N 39°59' W 075°06'0 0.0
2017-Oct-10 07:30N 39°59' W 075°06'0 0.0
2017-Oct-10 07:00N 39°59' W 075°06'0 0.0
2017-Oct-10 06:30N 39°59' W 075°06'0 0.0
2017-Oct-10 06:00N 39°59' W 075°06'0 0.0
2017-Oct-10 05:30N 39°59' W 075°06'0 0.0
2017-Oct-10 05:00N 39°59' W 075°06'0 0.0
2017-Oct-10 04:30N 39°59' W 075°06'0 0.0
2017-Oct-10 04:00N 39°59' W 075°06'0 0.0
2017-Oct-10 03:30N 39°59' W 075°06'0 0.0
2017-Oct-10 03:00N 39°59' W 075°06'0 0.0
2017-Oct-10 02:30N 39°59' W 075°06'0 0.0
2017-Oct-10 02:00N 39°59' W 075°06'0 0.0
2017-Oct-10 01:30N 39°59' W 075°06'  
Track history (hours):
 
Tides and Currents Weather Stations Pressure Air Temp Water Temp Dewpoint Dewpoint Depression Visibility Wind Speed Wind Dir Waves Ship Positions

Chemical Pioneer

Owner: US Shipping Corp, Edison, NJ. More information available from US FCC via Universal Licensing System and Coast Guard Vessel Documentation Center.

Last reported at 2017-Oct-20 01:15 UTC. Time now 2017-Oct-20 01:37 UTC.
Position N 29°22' W 094°55'.

Type: Tanker. MMSI: 366032000.

Date/timePositionNaut miles runAvg speedWind from/ knotsBaromVisibWave heightAir tempDewpointWater temp
2017-Oct-20 01:15N 29°22' W 094°55'0 0.0
2017-Oct-20 00:40N 29°22' W 094°55'0 0.0
2017-Oct-20 00:21N 29°22' W 094°55'0 0.0
2017-Oct-19 23:43N 29°22' W 094°55'0 0.0
2017-Oct-19 23:29N 29°22' W 094°55'0 0.0
2017-Oct-19 22:58N 29°22' W 094°55'0 0.0
2017-Oct-19 22:16N 29°22' W 094°55'0 0.0
2017-Oct-19 22:00N 29°22' W 094°55'0 0.0
2017-Oct-19 21:29N 29°22' W 094°55'0 0.0
2017-Oct-19 20:56N 29°22' W 094°55'0 0.0
2017-Oct-19 20:27N 29°22' W 094°55'0 0.0
2017-Oct-19 19:56N 29°22' W 094°55'1 0.7
2017-Oct-19 19:12N 29°22' W 094°54'1 2.9
2017-Oct-19 18:50N 29°22' W 094°53'1 4.0
2017-Oct-19 18:30N 29°23' W 094°52'6 9.9
2017-Oct-19 17:57N 29°21' W 094°46'  
2017-Oct-13 17:57N 24°59' W 080°14'613.9
2017-Oct-13 17:31N 25°04' W 080°10'714.8
2017-Oct-13 17:00N 25°11' W 080°07'714.3
2017-Oct-13 16:30N 25°18' W 080°04'714.6
2017-Oct-13 16:01N 25°25' W 080°02'714.5
2017-Oct-13 15:30N 25°32' W 080°01'714.5
2017-Oct-13 15:00N 25°39' W 080°01'715.0
2017-Oct-13 14:30N 25°47' W 079°60'816.4
2017-Oct-13 14:00N 25°55' W 079°59'815.5
2017-Oct-13 13:30N 26°02' W 079°59'714.3
2017-Oct-13 13:00N 26°10' W 079°59'815.4
2017-Oct-13 12:30N 26°17' W 079°58'815.2
2017-Oct-13 12:00N 26°25' W 079°58'715.0
2017-Oct-13 11:30N 26°32' W 079°57'714.6
2017-Oct-13 11:00N 26°40' W 079°58'714.6
2017-Oct-13 10:30N 26°47' W 079°58'713.6
2017-Oct-13 10:00N 26°54' W 079°58'714.2
2017-Oct-13 09:30N 27°01' W 079°58'714.2
2017-Oct-13 09:00N 27°08' W 079°58'23315.7
2017-Oct-12 18:09N 30°56' W 080°56'416.9
2017-Oct-12 17:54N 30°58' W 080°52'3416.9
2017-Oct-12 15:55N 31°17' W 080°19'4117.3
2017-Oct-12 13:34N 31°38' W 079°39'416.3
2017-Oct-12 13:21N 31°40' W 079°35'615.9
2017-Oct-12 12:58N 31°43' W 079°29'715.0
2017-Oct-12 12:29N 31°47' W 079°22'815.4
2017-Oct-12 11:57N 31°53' W 079°15'716.5
2017-Oct-12 11:30N 31°58' W 079°09'15716.2
2017-Oct-12 01:51N 33°47' W 076°55'616.6
2017-Oct-12 01:30N 33°51' W 076°50'916.7
2017-Oct-12 01:00N 33°57' W 076°42'916.8
2017-Oct-12 00:27N 34°03' W 076°35'816.8
2017-Oct-12 00:00N 34°08' W 076°28'816.7
2017-Oct-11 23:30N 34°14' W 076°21'816.7
2017-Oct-11 23:00N 34°20' W 076°13'916.3
2017-Oct-11 22:28N 34°26' W 076°05'916.0
2017-Oct-11 21:56N 34°32' W 075°58'715.6
2017-Oct-11 21:30N 34°36' W 075°52'815.6
2017-Oct-11 21:00N 34°41' W 075°45'815.6
2017-Oct-11 20:28N 34°47' W 075°38'815.7
2017-Oct-11 19:56N 34°53' W 075°31'28814.5
2017-Oct-11 00:01N 39°42' W 075°31'714.7
2017-Oct-10 23:30N 39°48' W 075°26'2 3.4
2017-Oct-10 22:59N 39°49' W 075°24'0 0.3
2017-Oct-10 22:29N 39°49' W 075°24'0 0.1
2017-Oct-10 21:59N 39°49' W 075°24'0 0.0
2017-Oct-10 21:29N 39°49' W 075°24'0 0.1
2017-Oct-10 20:59N 39°49' W 075°24'0 0.0
2017-Oct-10 20:29N 39°49' W 075°24'0 0.0
2017-Oct-10 19:59N 39°49' W 075°24'0 0.0
2017-Oct-10 19:29N 39°49' W 075°24'0 0.0
2017-Oct-10 18:59N 39°49' W 075°24'0 0.0
2017-Oct-10 18:29N 39°49' W 075°24'0 0.0
2017-Oct-10 17:59N 39°49' W 075°24'0 0.0
2017-Oct-10 17:29N 39°49' W 075°24'0 0.1
2017-Oct-10 16:59N 39°49' W 075°24'0 0.3
2017-Oct-10 16:29N 39°49' W 075°24'0 0.1
2017-Oct-10 15:59N 39°49' W 075°24'0 0.1
2017-Oct-10 15:29N 39°49' W 075°24'0 0.0
2017-Oct-10 15:00N 39°49' W 075°24'0 0.0
2017-Oct-10 14:00N 39°49' W 075°24'0 0.0
2017-Oct-10 13:30N 39°49' W 075°24'0 0.4
2017-Oct-10 13:00N 39°49' W 075°24'2 4.1
2017-Oct-10 12:31N 39°50' W 075°22'5 9.7
2017-Oct-10 12:00N 39°51' W 075°16'611.9
2017-Oct-10 11:31N 39°53' W 075°08'4 8.5
2017-Oct-10 11:01N 39°57' W 075°08'2 4.1
2017-Oct-10 10:31N 39°59' W 075°06'0 0.0
2017-Oct-10 10:00N 39°59' W 075°06'0 0.0
2017-Oct-10 09:30N 39°59' W 075°06'0 0.0
2017-Oct-10 09:00N 39°59' W 075°06'0 0.0
2017-Oct-10 08:30N 39°59' W 075°06'0 0.0
2017-Oct-10 08:00N 39°59' W 075°06'0 0.0
2017-Oct-10 07:30N 39°59' W 075°06'0 0.0
2017-Oct-10 07:00N 39°59' W 075°06'0 0.0
2017-Oct-10 06:30N 39°59' W 075°06'0 0.0
2017-Oct-10 06:00N 39°59' W 075°06'0 0.0
2017-Oct-10 05:30N 39°59' W 075°06'0 0.0
2017-Oct-10 05:00N 39°59' W 075°06'0 0.0
2017-Oct-10 04:30N 39°59' W 075°06'0 0.0
2017-Oct-10 04:00N 39°59' W 075°06'0 0.0
2017-Oct-10 03:30N 39°59' W 075°06'0 0.0
2017-Oct-10 03:00N 39°59' W 075°06'0 0.0
2017-Oct-10 02:30N 39°59' W 075°06'0 0.0
2017-Oct-10 02:00N 39°59' W 075°06'0 0.0
2017-Oct-10 01:30N 39°59' W 075°06'  

Dump ship's entire track history